• Join FlightAware (Why Join?)
  • Login
  • US Flag 
12:57AM EST


 

Airport Tracker/Info


-or-


 

Live Flight TrackerFlight Track Log ✈ DAL2033 ✈ 19-Mar-2014 ✈ KATL - KALB

Flight Track Log - Related Links

Times and Time Zones

All times are in EDT time to prevent confusion due to time zone crossing. See the DAL2033 flight status page for this flight to view local times or setup timezone preferences in your user account.

Time Position Orientation Groundspeed Altitude Reporting Facility
EDT Latitude Longitude Course Direction KTS MPH feet Rate Location/Type
03:24PM 33.6667 -84.5000 North 216 249 3,100  Level Atlanta TRACON
03:25PM 33.6833 -84.5667 287° West 239 275 6,500 3,060 Climbing Atlanta TRACON
03:26PM 33.8735 -84.2068 320° Northwest  Level FlightAware Approximate
03:26PM 33.7667 -84.5833 351° North 291 335 9,300  Level Atlanta TRACON
03:27PM 33.9943 -84.2667 North  Level FlightAware Approximate
03:28PM 34.1330 -84.2667 North  Level FlightAware Approximate
03:28PM 33.9483 -84.3969 40° Northeast 363 418 13,600  Level Atlanta Center
03:29PM 34.2718 -84.2667 North  Level FlightAware Approximate
03:29PM 34.0528 -84.3597 16° North 381 438 16,000  Level Atlanta Center
03:30PM 34.1758 -84.3175 16° North 402 463 18,000 1,800 Climbing Atlanta Center
03:31PM 34.2992 -84.2778 15° North 441 507 19,700 1,740 Climbing Atlanta Center
03:32PM 34.4286 -84.2478 11° North 454 522 21,500 1,800 Climbing Atlanta Center
03:33PM 34.5558 -84.2178 11° North 461 531 23,400 1,560 Climbing Atlanta Center
03:34PM 34.6853 -84.1903 10° North 477 549 24,700 1,500 Climbing Atlanta Center
03:35PM 34.8211 -84.1578 11° North 477 549 26,400 1,860 Climbing Atlanta Center
03:36PM 34.9525 -84.1275 11° North 477 549 28,500 1,680 Climbing Atlanta Center
03:37PM 35.0839 -84.0972 11° North 482 555 29,800 1,200 Climbing Atlanta Center
03:38PM 35.2175 -84.0617 12° North 482 555 30,900 1,200 Climbing Atlanta Center
03:39PM 35.3489 -84.0336 10° North 482 555 32,200 1,020 Climbing Atlanta Center
03:40PM 35.4764 -84.0006 12° North 477 549 33,000 360 Climbing Atlanta Center
03:41PM 35.6014 -83.9697 11° North 470 541 33,000  Level Atlanta Center
03:42PM 35.7308 -83.9364 12° North 470 541 33,000  Level Atlanta Center
03:43PM 35.8600 -83.9081 10° North 470 541 33,000  Level Atlanta Center
03:44PM 35.9850 -83.8436 23° Northeast 470 541 33,000  Level Atlanta Center
03:46PM 36.1583 -83.7328 27° Northeast 500 575 33,000  Level Indianapolis Center
03:47PM 36.2814 -83.6528 28° Northeast 500 575 33,000  Level Indianapolis Center
03:48PM 36.4053 -83.5744 27° Northeast 500 575 33,000  Level Indianapolis Center
03:49PM 36.5417 -83.4886 27° Northeast 500 575 33,000  Level Indianapolis Center
03:50PM 36.6639 -83.4011 30° Northeast 500 575 33,000  Level Indianapolis Center
03:51PM 36.7789 -83.2903 38° Northeast 516 594 33,000  Level Indianapolis Center
03:52PM 36.9150 -83.1606 37° Northeast 518 596 33,000  Level Indianapolis Center
03:53PM 37.0336 -83.0494 37° Northeast 518 596 33,000  Level Indianapolis Center
03:54PM 37.1522 -82.9367 37° Northeast 520 598 33,000  Level Indianapolis Center
03:55PM 37.2694 -82.8250 37° Northeast 520 598 33,000  Level Indianapolis Center
03:56PM 37.3861 -82.7136 37° Northeast 521 600 33,000  Level Indianapolis Center
03:57PM 37.5025 -82.6017 37° Northeast 521 600 33,000  Level Indianapolis Center
03:58PM 37.6197 -82.4911 37° Northeast 522 601 33,000  Level Indianapolis Center
03:59PM 37.7561 -82.3583 38° Northeast 525 604 33,000  Level Indianapolis Center
04:00PM 37.8725 -82.2436 38° Northeast 528 608 33,000  Level Indianapolis Center
04:01PM 37.9781 -82.1406 38° Northeast 528 608 33,000  Level Indianapolis Center
04:02PM 38.0942 -82.0250 38° Northeast 528 608 33,000  Level Indianapolis Center
04:03PM 38.2325 -81.8872 38° Northeast 528 608 33,000  Level Indianapolis Center
04:04PM 38.3472 -81.7711 38° Northeast 528 608 33,000  Level Indianapolis Center
04:05PM 38.4497 -81.6314 47° Northeast 538 619 33,000  Level Indianapolis Center
04:06PM 38.5464 -81.4886 49° Northeast 539 620 33,000  Level Indianapolis Center
04:07PM 38.6628 -81.3208 48° Northeast 540 621 33,000  Level Indianapolis Center
04:09PM 38.7619 -81.1794 48° Northeast 540 621 33,000  Level Indianapolis Center
04:10PM 38.8619 -81.0350 48° Northeast 541 623 33,000  Level Indianapolis Center
04:11PM 38.9608 -80.8917 48° Northeast 541 623 33,000  Level Indianapolis Center
04:12PM 39.0606 -80.7467 48° Northeast 540 621 33,000  Level Indianapolis Center
04:13PM 39.1636 -80.6061 47° Northeast 540 621 33,000  Level Indianapolis Center
04:14PM 39.2872 -80.4336 47° Northeast 542 624 33,000  Level Indianapolis Center
04:15PM 39.3889 -80.2886 48° Northeast 542 624 33,000  Level Indianapolis Center
04:16PM 39.4903 -80.1447 48° Northeast 542 624 33,000  Level Indianapolis Center
04:17PM 39.5914 -79.9978 48° Northeast 543 625 33,000  Level Cleveland Center
04:18PM 39.6917 -79.8500 49° Northeast 545 627 33,000  Level Cleveland Center
04:19PM 39.7900 -79.7036 49° Northeast 545 627 33,000  Level Cleveland Center
04:20PM 39.9092 -79.5267 49° Northeast 545 627 33,000  Level Cleveland Center
04:21PM 40.0089 -79.3806 48° Northeast 545 627 33,000  Level Cleveland Center
04:22PM 40.1014 -79.2422 49° Northeast 543 625 33,000  Level Cleveland Center
04:23PM 40.2186 -79.0667 49° Northeast 538 619 33,000  Level Cleveland Center
04:24PM 40.3167 -78.9203 49° Northeast 538 619 33,000  Level Cleveland Center
04:25PM 40.4131 -78.7717 50° Northeast 539 620 33,000  Level Cleveland Center
04:26PM 40.5122 -78.6211 49° Northeast 544 626 33,000  Level Cleveland Center
04:27PM 40.6106 -78.4697 49° Northeast 550 633 33,000  Level Cleveland Center
04:28PM 40.7281 -78.2886 49° Northeast 551 634 33,000  Level Cleveland Center
04:29PM 40.8258 -78.1389 49° Northeast 550 633 33,000  Level Cleveland Center
04:30PM 40.9222 -77.9869 50° Northeast 550 633 33,000  Level Cleveland Center
04:31PM 41.0217 -77.8414 48° Northeast 544 626 33,000  Level Cleveland Center
04:32PM 41.1428 -77.6675 47° Northeast 543 625 33,000 -300 Level Cleveland Center
04:33PM 41.2417 -77.5203 48° Northeast 542 624 32,400 -1,260 Descending Cleveland Center
04:34PM 41.3417 -77.3739 48° Northeast 540 621 30,400 -1,860 Descending Cleveland Center
04:35PM 41.4394 -77.2278 48° Northeast 537 618 28,600 -1,680 Descending Cleveland Center
04:36PM 41.5353 -77.0847 48° Northeast 524 603 27,000 -780 Descending Cleveland Center
04:37PM 41.6492 -76.9128 48° Northeast 509 586 27,000 -60 Level Cleveland Center
04:39PM 41.7381 -76.7781 48° Northeast 512 589 26,900  Descending New York Center
04:40PM 41.8239 -76.6467 49° Northeast 489 563 27,000 -420 Climbing New York Center
04:42PM 42.0092 -76.3683 48° Northeast 464 534 25,800 -900 Descending Boston Center
04:43PM 42.0936 -76.2397 48° Northeast 457 526 24,400 -900 Descending Boston Center
04:44PM 42.1706 -76.1103 51° Northeast 442 509 24,000 -240 Descending Boston Center
04:45PM 42.2244 -75.9581 64° Northeast 446 513 24,000  Level Boston Center
04:46PM 42.2767 -75.8061 65° Northeast 446 513 24,000 -420 Level Boston Center
04:47PM 42.3247 -75.6639 65° Northeast 440 506 23,200 -1,080 Descending Boston Center
04:48PM 42.3750 -75.5172 65° Northeast 435 501 21,900 -1,500 Descending Boston Center
04:49PM 42.4206 -75.3361 71° East 431 496 20,200 -1,500 Descending Boston Center
04:50PM 42.4342 -75.1825 83° East 415 478 18,900 -1,440 Descending Boston Center
04:51PM 42.4489 -75.0303 82° East 411 473 17,300 -1,680 Descending Boston Center
04:52PM 42.4611 -74.8792 84° East 407 468 15,500 -1,800 Descending Boston Center
04:52PM 42.4614 -74.8589 89° East 402 463 15,400 -1,980 Descending Boston Center
04:53PM 42.4719 -74.7606 82° East 391 450 14,000 -2,040 Descending Boston Center
04:53PM 42.4756 -74.7256 82° East 392 451 13,400 -2,220 Descending Boston Center
04:54PM 42.4867 -74.6058 83° East 379 436 11,600 -2,400 Descending Boston Center
04:54PM 42.4914 -74.5739 79° East 381 438 11,000 -720 Descending Boston Center
04:55PM 42.5289 -74.4458 68° East 379 436 10,800 -600 Descending Boston Center
04:56PM 42.5911 -74.3744 40° Northeast 348 400 9,900 -1,140 Descending Boston Center
04:56PM 42.6022 -74.3586 46° Northeast 354 407 9,700 -1,620 Descending Boston Center
04:57PM 42.6592 -74.2875 43° Northeast 332 382 8,300 -1,560 Descending Boston Center
04:57PM 42.6708 -74.2733 42° Northeast 337 388 8,100 -1,500 Descending Boston Center
04:58PM 42.7294 -74.2097 39° Northeast 325 374 6,800 -1,500 Descending Boston Center
04:58PM 42.7403 -74.1944 46° Northeast 326 375 6,600 -1,500 Descending Boston Center
04:59PM 42.7994 -74.1344 37° Northeast 318 366 5,300 -1,620 Descending Boston Center
04:59PM 42.8158 -74.1158 40° Northeast 318 366 5,000 -900 Descending Boston Center
05:00PM 42.8675 -74.0703 33° Northeast 281 323 4,400 -840 Descending Boston Center
05:00PM 42.8808 -74.0558 38° Northeast 279 321 4,200 -1,020 Descending Boston Center
05:01PM 42.9033 -74.0036 60° Northeast 199 229 3,400 -1,080 Descending Boston Center
05:01PM 42.9061 -73.9864 78° East 208 239 3,100 -420 Descending Boston Center
05:02PM 42.9150 -73.9289 78° East 198 228 3,000 -240 Descending Boston Center
05:02PM 42.9172 -73.9089 81° East 207 238 2,900 -1,140 Descending Boston Center
05:03PM 42.9225 -73.8525 83° East 197 227 1,900 -900 Descending Boston Center
05:03PM 42.9131 -73.8372 130° Southeast 186 214 2,000 60 Climbing Boston Center
05:04PM 42.8886 -73.8147 146° Southeast 152 175 2,000  Level Boston Center
05:04PM 42.8758 -73.8117 170° South 156 180 2,000  Level Boston Center
05:05PM 42.8447 -73.8086 176° South 154 177 2,000 -300 Level Boston Center
05:05PM 42.8328 -73.8083 179° South 155 178 1,700 -840 Descending Boston Center
05:06PM 42.8064 -73.8072 178° South 126 145 1,200 -600 Descending Boston Center
05:06PM 42.7981 -73.8069 179° South 132 152 1,100 -720 Descending Boston Center
05:07PM 42.7719 -73.8072 180° South 123 142 500 -840 Descending Boston Center
05:07PM 42.7631 -73.8056 172° South 126 145 300 -720 Descending Boston Center